Terminal Aerodrome Forecast
Issued by NWS

Current Version | Previous Version | Text Only | Print | Product List | Glossary On
Versions: 1 2 3 4 5 6 7 8 9 10 11 12 13 14 15 16
490
FTUS45 KTFX 092345
TAFLWT
TAF
KLWT 092345Z 1000/1024 09010KT P6SM -SHSN BKN040
     FM100200 08010KT P6SM BKN040
     FM100800 13008KT 2SM -SN BR BKN025
     FM102000 33008KT P6SM -SHSN BKN030=

USA.gov is the U.S. government's official web portal to all federal, state and local government web resources and services.